Time;durP1;ratioP1;P1;durP2;ratioP2;P2;SDS_P1;SDS_P2;PMS_P1;PMS_P2;Temp;Humidity;BMP_temperature;BMP_pressure;BME280_temperature;BME280_humidity;BME280_pressure;Samples;Min_cycle;Max_cycle;Signal;HPM_P1;HPM_P2
2022/02/08 00:01:12;;;;;;;8.68;2.65;;;;;;;;;;4947864;28;20038;-77
2022/02/08 00:03:38;;;;;;;10.45;2.45;;;;;;;;;;4947255;28;20038;-76
2022/02/08 00:06:24;;;;;;;10.18;2.53;;;;;;;;;;4947701;28;20043;-77
2022/02/08 00:08:50;;;;;;;11.55;2.97;;;;;;;;;;4951757;28;20047;-78
2022/02/08 00:11:16;;;;;;;10.43;2.92;;;;;;;;;;4950528;28;20538;-76
2022/02/08 00:13:42;;;;;;;13.10;3.08;;;;;;;;;;4944369;28;20027;-77
2022/02/08 00:16:08;;;;;;;11.73;3.00;;;;;;;;;;4951267;28;20058;-77
2022/02/08 00:18:34;;;;;;;14.75;2.90;;;;;;;;;;4951228;28;20035;-78
2022/02/08 00:21:01;;;;;;;13.00;3.28;;;;;;;;;;4952142;28;20047;-77
2022/02/08 00:23:27;;;;;;;12.45;3.00;;;;;;;;;;4948057;28;20078;-77
2022/02/08 00:25:53;;;;;;;13.95;2.97;;;;;;;;;;4964481;28;20494;-76
2022/02/08 00:28:19;;;;;;;12.82;3.05;;;;;;;;;;4950955;28;20483;-76
2022/02/08 00:30:45;;;;;;;11.45;3.58;;;;;;;;;;4952409;28;20050;-77
2022/02/08 00:33:11;;;;;;;8.73;2.78;;;;;;;;;;4954891;28;20404;-78
2022/02/08 00:35:39;;;;;;;9.70;2.97;;;4.50;99.90;;;;;;4953836;28;20117;-78
2022/02/08 00:38:05;;;;;;;10.48;2.58;;;;;;;;;;4948741;28;20529;-78
2022/02/08 00:40:31;;;;;;;12.05;3.20;;;;;;;;;;4952683;28;20110;-77
2022/02/08 00:42:59;;;;;;;8.70;2.72;;;;;;;;;;4949364;28;20024;-77
2022/02/08 00:45:48;;;;;;;11.48;2.63;;;;;;;;;;4953549;29;20061;-78
2022/02/08 00:48:26;;;;;;;9.90;3.15;;;;;;;;;;4947577;28;20097;-78
2022/02/08 00:50:52;;;;;;;14.52;2.58;;;;;;;;;;4951354;28;20081;-78
2022/02/08 00:53:19;;;;;;;12.00;2.63;;;;;;;;;;4949616;28;20035;-78
2022/02/08 00:55:45;;;;;;;7.05;2.67;;;;;;;;;;4949227;28;20046;-78
2022/02/08 00:58:11;;;;;;;9.70;3.08;;;;;;;;;;4953586;28;20244;-77
2022/02/08 01:00:37;;;;;;;12.52;3.20;;;;;;;;;;4951962;28;20066;-77
2022/02/08 01:03:04;;;;;;;11.20;2.35;;;;;;;;;;4955670;28;20031;-77
2022/02/08 01:05:30;;;;;;;12.00;2.80;;;;;;;;;;4965340;28;20546;-78
2022/02/08 01:07:56;;;;;;;8.20;3.00;;;;;;;;;;4951259;28;20506;-79
2022/02/08 01:10:24;;;;;;;10.30;2.65;;;;;;;;;;4952119;28;20084;-77
2022/02/08 01:12:50;;;;;;;11.07;3.30;;;;;;;;;;4954190;28;20034;-78
2022/02/08 01:15:17;;;;;;;10.63;2.88;;;4.30;99.90;;;;;;4953953;28;20042;-79
2022/02/08 01:17:44;;;;;;;11.13;2.95;;;;;;;;;;4948796;28;20024;-77
2022/02/08 01:20:15;;;;;;;11.90;2.80;;;4.40;99.90;;;;;;4946597;28;20063;-79
2022/02/08 01:22:42;;;;;;;;;;;4.40;99.90;;;;;;4948457;28;20027;-78
2022/02/08 01:25:15;;;;;;;7.20;2.85;;;4.40;99.90;;;;;;4952963;28;19958;-78
2022/02/08 01:27:48;;;;;;;14.23;3.67;;;;;;;;;;4947816;28;20122;-78
2022/02/08 01:30:27;;;;;;;12.35;3.13;;;;;;;;;;4950992;28;20031;-78
2022/02/08 01:35:48;;;;;;;7.78;3.08;;;4.40;99.90;;;;;;4949810;28;20101;-78
2022/02/08 01:38:22;;;;;;;10.80;2.97;;;;;;;;;;4951659;28;20039;-78
2022/02/08 01:45:57;;;;;;;16.70;3.08;;;;;;;;;;4948832;28;20039;-78
2022/02/08 01:48:44;;;;;;;16.63;3.33;;;;;;;;;;4953668;28;20042;-78
2022/02/08 01:51:10;;;;;;;12.98;3.05;;;;;;;;;;4966096;28;20039;-78
2022/02/08 01:53:36;;;;;;;11.40;3.22;;;3.90;99.90;;;;;;4946306;28;20102;-78
2022/02/08 01:56:02;;;;;;;16.83;3.55;;;;;;;;;;4951434;28;20043;-78
2022/02/08 01:58:28;;;;;;;11.68;3.08;;;;;;;;;;4944785;28;20388;-79
2022/02/08 02:00:55;;;;;;;8.10;2.45;;;4.70;99.90;;;;;;4966803;28;20031;-78
2022/02/08 02:03:21;;;;;;;10.35;3.30;;;;;;;;;;4945961;28;20404;-78
2022/02/08 02:05:47;;;;;;;16.33;3.00;;;;;;;;;;4947229;28;20070;-78
2022/02/08 02:08:13;;;;;;;11.05;2.80;;;;;;;;;;4950477;28;20071;-78
2022/02/08 02:10:39;;;;;;;8.40;2.50;;;;;;;;;;4949468;28;20035;-78
2022/02/08 02:15:51;;;;;;;9.50;2.30;;;;;;;;;;4949636;28;20039;-78
2022/02/08 02:18:17;;;;;;;8.60;2.90;;;;;;;;;;4948994;28;20024;-78
2022/02/08 02:20:43;;;;;;;13.10;2.80;;;;;;;;;;4964135;28;20229;-78
2022/02/08 02:23:09;;;;;;;11.27;2.75;;;;;;;;;;4946353;28;20034;-78
2022/02/08 02:25:35;;;;;;;11.35;2.92;;;;;;;;;;4944114;28;20035;-78
2022/02/08 02:28:04;;;;;;;14.95;2.83;;;4.60;99.90;;;;;;4961988;28;20082;-79
2022/02/08 02:30:31;;;;;;;11.50;2.35;;;;;;;;;;4951893;28;20534;-78
2022/02/08 02:32:59;;;;;;;10.98;3.08;;;;;;;;;;4966631;28;20443;-79
2022/02/08 02:35:26;;;;;;;11.65;2.65;;;;;;;;;;4951592;28;20124;-77
2022/02/08 02:37:55;;;;;;;13.95;3.38;;;;;;;;;;4966069;28;20475;-79
2022/02/08 02:40:23;;;;;;;9.50;2.40;;;;;;;;;;4951993;28;20023;-78
2022/02/08 02:42:50;;;;;;;12.10;2.50;;;;;;;;;;4953730;28;20027;-78
2022/02/08 02:45:19;;;;;;;12.38;3.42;;;;;;;;;;4948616;28;20106;-77
2022/02/08 02:47:45;;;;;;;12.30;2.78;;;;;;;;;;4948135;28;20039;-77
2022/02/08 02:50:11;;;;;;;14.45;3.42;;;;;;;;;;4948730;28;20055;-78
2022/02/08 02:52:37;;;;;;;8.75;2.92;;;;;;;;;;4946511;28;20841;-78
2022/02/08 02:55:04;;;;;;;12.07;4.45;;;;;;;;;;4963996;28;20492;-78
2022/02/08 02:57:30;;;;;;;13.43;3.53;;;;;;;;;;4945549;28;20125;-78
2022/02/08 03:00:06;;;;;;;12.13;3.38;;;;;;;;;;4950618;28;20027;-78
2022/02/08 03:02:42;;;;;;;12.38;3.15;;;;;;;;;;4944660;28;20032;-79
2022/02/08 03:05:21;;;;;;;11.38;3.30;;;;;;;;;;4948376;28;20027;-78
2022/02/08 03:18:46;;;;;;;10.73;3.53;;;;;;;;;;4949131;28;20074;-78
2022/02/08 03:21:13;;;;;;;14.95;3.70;;;;;;;;;;4946959;28;20058;-78
2022/02/08 03:23:39;;;;;;;11.90;3.28;;;4.90;99.90;;;;;;4950383;28;20031;-77
2022/02/08 03:26:06;;;;;;;12.82;3.08;;;;;;;;;;4949209;28;20035;-78
2022/02/08 03:28:32;;;;;;;10.30;3.33;;;;;;;;;;4943899;28;20055;-78
2022/02/08 03:30:58;;;;;;;10.38;3.80;;;;;;;;;;4949345;28;20150;-77
2022/02/08 03:33:26;;;;;;;12.73;3.28;;;;;;;;;;4943552;28;20044;-78
2022/02/08 03:35:54;;;;;;;11.15;3.90;;;;;;;;;;4948792;28;20031;-78
2022/02/08 03:38:26;;;;;;;11.05;3.15;;;;;;;;;;4962601;28;20031;-77
2022/02/08 03:40:53;;;;;;;11.38;3.85;;;;;;;;;;4949466;28;20019;-78
2022/02/08 03:45:53;;;;;;;14.13;3.78;;;5.00;99.90;;;;;;4946366;28;20185;-78
2022/02/08 03:48:22;;;;;;;13.45;4.53;;;;;;;;;;4949664;28;20039;-75
2022/02/08 03:50:54;;;;;;;15.45;3.83;;;;;;;;;;4943224;28;20031;-78
2022/02/08 03:53:20;;;;;;;14.80;3.60;;;;;;;;;;4960683;28;20064;-77
2022/02/08 03:55:47;;;;;;;12.68;3.38;;;;;;;;;;4955458;28;20031;-77
2022/02/08 03:58:13;;;;;;;14.13;3.67;;;;;;;;;;4943773;28;20031;-78
2022/02/08 04:01:04;;;;;;;11.82;3.75;;;;;;;;;;4953232;28;20024;-77
2022/02/08 04:03:28;;;;;;;9.00;3.28;;;;;;;;;;4940828;28;20032;-78
2022/02/08 04:05:56;;;;;;;10.80;2.78;;;;;;;;;;4944966;28;20032;-77
2022/02/08 04:08:22;;;;;;;13.60;2.97;;;;;;;;;;4948885;28;20046;-77
2022/02/08 04:10:49;;;;;;;6.38;2.90;;;;;;;;;;4947725;28;20031;-77
2022/02/08 04:18:30;;;;;;;12.38;2.97;;;;;;;;;;4948879;28;20594;-78
2022/02/08 04:42:58;;;;;;;13.65;3.75;;;;;;;;;;4931676;29;20028;-77
2022/02/08 04:50:22;;;;;;;12.98;3.60;;;;;;;;;;4949151;29;20042;-77
2022/02/08 04:52:50;;;;;;;12.60;3.63;;;;;;;;;;4959249;28;20042;-78
2022/02/08 04:58:07;;;;;;;13.32;3.13;;;;;;;;;;4948215;28;20035;-78
2022/02/08 05:00:57;;;;;;;11.43;3.75;;;;;;;;;;4953013;28;20055;-77
2022/02/08 05:42:05;;;;;;;11.93;2.50;;;;;;;;;;4953555;28;20042;-78
2022/02/08 05:44:41;;;;;;;12.90;3.53;;;;;;;;;;4948997;28;20028;-76
2022/02/08 05:47:07;;;;;;;9.77;3.05;;;;;;;;;;4943606;28;20048;-77
2022/02/08 05:49:52;;;;;;;8.45;2.58;;;;;;;;;;4947838;28;20039;-78
2022/02/08 05:52:43;;;;;;;10.00;2.40;;;;;;;;;;4945078;28;20475;-78
2022/02/08 05:55:07;;;;;;;12.65;2.65;;;;;;;;;;4945684;28;20054;-78
2022/02/08 05:57:33;;;;;;;9.18;2.70;;;;;;;;;;4948910;28;20031;-77
2022/02/08 05:59:59;;;;;;;14.00;3.25;;;;;;;;;;4945072;28;20040;-77
2022/02/08 06:02:25;;;;;;;12.25;2.55;;;;;;;;;;4939727;28;20028;-75
2022/02/08 06:04:51;;;;;;;8.73;2.70;;;;;;;;;;4943981;28;20059;-76
2022/02/08 06:07:21;;;;;;;14.00;3.17;;;;;;;;;;4936265;28;20035;-77
2022/02/08 06:09:49;;;;;;;8.50;3.53;;;;;;;;;;4945559;28;20058;-77
2022/02/08 06:12:15;;;;;;;11.90;3.10;;;;;;;;;;4943830;28;20038;-76
2022/02/08 06:14:43;;;;;;;12.68;3.17;;;;;;;;;;4942578;28;20033;-77
2022/02/08 06:17:09;;;;;;;16.30;3.03;;;;;;;;;;4937948;28;20043;-76
2022/02/08 06:19:35;;;;;;;8.35;2.83;;;;;;;;;;4944607;28;20031;-76
2022/02/08 06:22:01;;;;;;;12.98;2.92;;;;;;;;;;4959079;28;20081;-77
2022/02/08 06:24:27;;;;;;;10.30;3.20;;;;;;;;;;4942031;28;20376;-76
2022/02/08 06:26:53;;;;;;;11.20;3.20;;;;;;;;;;4943919;28;20039;-77
2022/02/08 06:29:22;;;;;;;14.70;3.15;;;;;;;;;;4944475;28;20047;-77
2022/02/08 06:31:48;;;;;;;10.55;3.28;;;;;;;;;;4948211;28;20042;-77
2022/02/08 06:34:19;;;;;;;13.60;3.30;;;;;;;;;;4943616;28;20065;-76
2022/02/08 06:36:45;;;;;;;10.38;3.05;;;;;;;;;;4947075;28;20035;-78
2022/02/08 06:39:13;;;;;;;8.88;3.00;;;;;;;;;;4963551;28;20035;-76
2022/02/08 06:41:39;;;;;;;10.68;3.45;;;;;;;;;;4944748;28;20111;-77
2022/02/08 06:44:05;;;;;;;13.35;3.25;;;;;;;;;;4940674;28;22374;-78
2022/02/08 06:46:31;;;;;;;14.45;3.63;;;;;;;;;;4948648;28;20058;-76
2022/02/08 06:48:57;;;;;;;11.40;3.38;;;;;;;;;;4945140;28;20039;-75
2022/02/08 06:51:23;;;;;;;14.20;3.50;;;;;;;;;;4948173;28;20042;-78
2022/02/08 06:53:49;;;;;;;16.48;4.07;;;;;;;;;;4949868;28;20522;-78
2022/02/08 06:56:15;;;;;;;11.82;3.78;;;;;;;;;;4945217;28;20154;-75
2022/02/08 06:58:50;;;;;;;11.85;3.22;;;;;;;;;;4940599;28;20030;-77
2022/02/08 07:01:25;;;;;;;15.27;4.13;;;5.50;99.90;;;;;;4942129;28;20030;-76
2022/02/08 07:03:52;;;;;;;14.00;3.03;;;;;;;;;;4946806;28;20032;-76
2022/02/08 07:06:18;;;;;;;14.73;3.55;;;;;;;;;;4959789;28;20102;-77
2022/02/08 07:08:44;;;;;;;17.35;4.07;;;5.50;99.90;;;;;;4945890;28;20125;-78
2022/02/08 07:11:16;;;;;;;19.27;4.05;;;;;;;;;;4930560;29;20047;-77
2022/02/08 07:13:44;;;;;;;11.95;3.47;;;5.60;99.90;;;;;;4942798;28;20498;-76
2022/02/08 07:16:14;;;;;;;11.27;3.47;;;5.60;99.90;;;;;;4958943;28;20027;-77
2022/02/08 07:18:39;;;;;;;12.52;4.30;;;5.70;99.90;;;;;;4945697;28;20034;-78
2022/02/08 07:21:07;;;;;;;10.90;3.15;;;5.60;99.90;;;;;;4944380;28;20027;-77
2022/02/08 07:23:33;;;;;;;14.07;3.35;;;;;;;;;;4947584;28;20056;-77
2022/02/08 07:25:59;;;;;;;10.95;3.15;;;;;;;;;;4960437;28;20039;-77
2022/02/08 07:28:25;;;;;;;13.15;3.55;;;;;;;;;;4944377;28;20422;-78
2022/02/08 07:30:59;;;;;;;17.38;3.72;;;;;;;;;;4958621;28;20036;-76
2022/02/08 07:33:25;;;;;;;13.43;3.05;;;;;;;;;;4962554;28;20035;-77
2022/02/08 07:36:04;;;;;;;18.60;3.28;;;;;;;;;;4943404;28;20122;-76
2022/02/08 07:38:36;;;;;;;10.95;3.65;;;;;;;;;;4945274;28;20023;-76
2022/02/08 07:43:28;;;;;;;15.52;4.80;;;;;;;;;;4948285;28;20414;-76
2022/02/08 07:45:55;;;;;;;15.70;3.50;;;;;;;;;;4962727;28;20314;-76
2022/02/08 07:48:21;;;;;;;14.57;3.42;;;;;;;;;;4938240;28;20031;-75
2022/02/08 07:50:50;;;;;;;12.23;3.60;;;;;;;;;;4942700;28;20158;-76
2022/02/08 07:53:16;;;;;;;15.65;3.97;;;;;;;;;;4947418;28;20075;-76
2022/02/08 07:55:42;;;;;;;15.85;4.15;;;;;;;;;;4952600;28;20502;-76
2022/02/08 07:58:08;;;;;;;12.45;3.58;;;;;;;;;;4948852;28;20030;-76
2022/02/08 08:00:34;;;;;;;11.55;3.80;;;;;;;;;;4952542;28;20113;-76
2022/02/08 08:03:00;;;;;;;15.07;3.67;;;;;;;;;;4945355;28;20148;-78
2022/02/08 08:05:26;;;;;;;14.93;4.30;;;;;;;;;;4949059;28;20107;-75
2022/02/08 08:07:52;;;;;;;17.88;4.35;;;5.90;99.90;;;;;;4942551;28;20507;-76
2022/02/08 08:10:20;;;;;;;11.13;3.53;;;;;;;;;;4945168;28;20039;-76
2022/02/08 08:12:49;;;;;;;15.95;3.85;;;;;;;;;;4948934;28;20051;-76
2022/02/08 08:18:19;;;;;;;16.52;3.90;;;;;;;;;;4949768;28;20408;-77
2022/02/08 08:20:45;;;;;;;12.27;3.83;;;6.00;99.90;;;;;;4957641;28;20064;-77
2022/02/08 08:23:11;;;;;;;14.55;3.67;;;5.90;99.90;;;;;;4945564;28;20968;-78
2022/02/08 08:25:37;;;;;;;15.52;3.38;;;;;;;;;;4944778;28;20052;-76
2022/02/08 08:28:04;;;;;;;15.65;3.95;;;5.70;99.90;;;;;;4947570;28;20049;-76
2022/02/08 08:30:30;;;;;;;15.55;4.10;;;;;;;;;;4944353;28;20032;-76
2022/02/08 08:32:56;;;;;;;17.65;4.05;;;;;;;;;;4954961;28;20035;-78
2022/02/08 08:35:23;;;;;;;13.40;3.28;;;;;;;;;;4953635;28;20110;-77
2022/02/08 08:37:58;;;;;;;16.60;4.70;;;;;;;;;;4947919;28;20023;-77
2022/02/08 08:40:40;;;;;;;17.42;5.03;;;;;;;;;;4947570;28;20098;-77
2022/02/08 08:53:36;;;;;;;13.98;3.95;;;;;;;;;;4952769;28;20039;-77
2022/02/08 08:56:02;;;;;;;16.40;4.32;;;;;;;;;;4952477;28;20050;-76
2022/02/08 08:58:30;;;;;;;10.88;3.67;;;;;;;;;;4966205;28;20127;-76
2022/02/08 09:00:57;;;;;;;12.82;4.03;;;;;;;;;;4950443;28;20035;-79
2022/02/08 09:03:23;;;;;;;14.18;3.28;;;;;;;;;;4952128;28;20042;-76
2022/02/08 09:05:49;;;;;;;12.25;2.72;;;;;;;;;;4964006;28;20035;-76
2022/02/08 09:08:15;;;;;;;11.85;3.10;;;;;;;;;;4951676;28;20098;-76
2022/02/08 09:10:51;;;;;;;12.63;4.00;;;;;;;;;;4951680;28;20039;-77
2022/02/08 09:13:27;;;;;;;13.80;2.97;;;6.10;99.90;;;;;;4946492;28;20043;-76
2022/02/08 09:29:07;;;;;;;11.93;3.22;;;;;;;;;;4949448;28;20039;-77
2022/02/08 09:31:35;;;;;;;17.75;3.55;;;;;;;;;;4966446;28;20050;-76
2022/02/08 09:34:02;;;;;;;14.05;3.72;;;;;;;;;;4947709;28;20573;-79
2022/02/08 09:36:28;;;;;;;12.38;3.03;;;;;;;;;;4950426;28;20114;-78
2022/02/08 09:38:55;;;;;;;16.02;3.90;;;6.30;99.90;;;;;;4963400;28;20035;-76
2022/02/08 09:41:22;;;;;;;12.85;3.25;;;6.30;99.90;;;;;;4959749;28;21035;-77
2022/02/08 09:43:50;;;;;;;16.33;3.25;;;6.30;99.90;;;;;;4942734;28;20047;-76
2022/02/08 09:46:17;;;;;;;15.02;3.55;;;6.30;99.90;;;;;;4949414;28;20123;-77
2022/02/08 09:48:50;;;;;;;13.90;3.63;;;6.40;99.90;;;;;;4946129;28;20039;-76
2022/02/08 09:51:17;;;;;;;15.00;3.08;;;6.50;99.90;;;;;;4957970;28;20035;-77
2022/02/08 09:53:43;;;;;;;15.55;3.45;;;;;;;;;;4942781;28;20104;-75
2022/02/08 09:56:11;;;;;;;17.38;3.67;;;6.50;99.90;;;;;;4949407;28;20071;-76
2022/02/08 09:58:38;;;;;;;15.35;3.38;;;;;;;;;;4954743;28;20031;-76
2022/02/08 10:01:13;;;;;;;21.40;4.18;;;6.70;99.90;;;;;;4939538;28;20036;-78
2022/02/08 10:03:54;;;;;;;12.52;4.32;;;;;;;;;;4946040;28;20040;-77
2022/02/08 10:06:20;;;;;;;16.00;3.35;;;;;;;;;;4946047;28;20039;-79
2022/02/08 10:09:00;;;;;;;16.10;3.15;;;6.60;99.90;;;;;;4948639;28;20098;-77
2022/02/08 10:11:31;;;;;;;15.20;4.05;;;;;;;;;;4950379;28;20035;-76
2022/02/08 10:14:18;;;;;;;14.98;3.83;;;6.60;99.90;;;;;;4948920;28;20058;-75
2022/02/08 10:22:44;;;;;;;14.63;3.97;;;;;;;;;;4949663;28;20110;-77
2022/02/08 10:25:47;;;;;;;15.75;4.25;;;6.60;99.90;;;;;;4941396;28;20373;-77
2022/02/08 10:28:17;;;;;;;13.07;5.18;;;6.80;99.90;;;;;;4943524;28;20402;-77
2022/02/08 10:39:02;;;;;;;17.88;4.90;;;;;;;;;;4946862;28;20577;-79
2022/02/08 10:41:27;;;;;;;16.55;4.00;;;7.50;99.90;;;;;;4945858;28;20030;-76
2022/02/08 10:44:02;;;;;;;14.30;3.90;;;6.80;99.90;;;;;;4948575;28;20027;-78
2022/02/08 10:46:29;;;;;;;19.60;4.63;;;6.80;99.90;;;;;;4948715;28;20506;-79
2022/02/08 10:49:06;;;;;;;16.17;4.57;;;6.80;99.90;;;;;;4944622;28;20452;-76
2022/02/08 10:51:45;;;;;;;16.50;5.07;;;6.80;99.90;;;;;;4962940;28;20426;-77
2022/02/08 10:57:04;;;;;;;15.57;3.35;;;7.00;99.90;;;;;;4946010;28;20034;-79
2022/02/08 10:59:38;;;;;;;14.40;3.65;;;7.10;99.90;;;;;;4948133;28;20142;-76
2022/02/08 11:02:11;;;;;;;14.48;3.97;;;8.30;99.90;;;;;;4944917;28;20062;-77
2022/02/08 11:07:28;;;;;;;14.95;4.60;;;7.20;99.90;;;;;;4943147;28;20047;-79
2022/02/08 11:10:02;;;;;;;11.52;3.30;;;;;;;;;;4967123;28;20260;-76
2022/02/08 11:12:37;;;;;;;16.48;3.22;;;;;;;;;;4948857;28;20037;-75
2022/02/08 11:15:22;;;;;;;10.88;3.22;;;;;;;;;;4941672;28;20059;-77
2022/02/08 11:20:43;;;;;;;18.52;4.32;;;7.50;99.90;;;;;;4947061;28;20062;-77
2022/02/08 11:23:14;;;;;;;15.63;3.35;;;;;;;;;;4969391;28;20046;-79
2022/02/08 11:25:42;;;;;;;14.38;3.70;;;;;;;;;;4981778;28;20012;-79
2022/02/08 11:28:38;;;;;;;10.10;2.95;;;7.60;99.90;;;;;;4969706;28;20063;-78
2022/02/08 11:31:15;;;;;;;11.27;3.20;;;;;;;;;;4956960;28;20063;-78
2022/02/08 11:47:10;;;;;;;13.57;3.65;;;;;;;;;;4948729;28;20043;-77
2022/02/08 11:50:04;;;;;;;8.80;3.35;;;;;;;;;;4947955;28;20032;-78
2022/02/08 11:58:08;;;;;;;11.60;3.25;;;;;;;;;;4946007;28;20055;-77
2022/02/08 12:06:23;;;;;;;10.90;2.85;;;;;;;;;;4945183;28;20034;-76
2022/02/08 12:08:54;;;;;;;10.40;3.47;;;;;;;;;;4952968;28;20047;-78
2022/02/08 12:33:04;;;;;;;13.50;2.83;;;8.30;99.90;;;;;;4947325;28;20019;-78
2022/02/08 13:00:14;;;;;;;9.93;4.28;;;;;;;;;;4939026;28;20032;-79
2022/02/08 13:03:12;;;;;;;6.03;3.05;;;;;;;;;;4947212;28;20023;-78
2022/02/08 14:21:51;;;;;;;9.43;3.88;;;;;;;;;;4947027;28;20065;-77
2022/02/08 14:24:34;;;;;;;6.22;3.50;;;;;;;;;;4962524;28;20051;-78
2022/02/08 14:29:55;;;;;;;7.57;3.70;;;;;;;;;;4951738;28;20053;-76
2022/02/08 14:32:30;;;;;;;7.93;3.72;;;;;;;;;;4961195;28;20146;-77
2022/02/08 14:35:33;;;;;;;4.97;3.72;;;;;;;;;;4965331;28;20042;-77
2022/02/08 15:05:30;;;;;;;6.32;2.95;;;;;;;;;;4947457;28;20045;-77
2022/02/08 15:10:53;;;;;;;7.03;3.30;;;;;;;;;;4948275;28;20105;-78
2022/02/08 15:13:25;;;;;;;7.20;2.95;;;;;;;;;;4943514;28;20494;-78
2022/02/08 15:18:20;;;;;;;5.38;2.85;;;;;;;;;;4941961;28;20035;-78
2022/02/08 15:20:49;;;;;;;6.88;3.63;;;;;;;;;;4967305;28;20060;-77
2022/02/08 15:23:18;;;;;;;6.60;3.72;;;;;;;;;;4955475;28;20032;-78
2022/02/08 15:26:11;;;;;;;7.90;3.90;;;;;;;;;;4953828;28;20610;-79
2022/02/08 15:28:36;;;;;;;6.07;3.70;;;;;;;;;;4941341;28;20028;-78
2022/02/08 15:31:03;;;;;;;8.07;3.33;;;;;;;;;;4958559;28;20028;-79
2022/02/08 15:33:29;;;;;;;5.38;2.80;;;;;;;;;;4947087;28;20106;-78
2022/02/08 15:35:55;;;;;;;9.95;3.08;;;;;;;;;;4957643;28;20032;-78
2022/02/08 15:38:27;;;;;;;6.88;3.13;;;;;;;;;;4942368;28;20102;-77
2022/02/08 15:40:57;;;;;;;8.68;3.42;;;;;;;;;;4948204;28;20034;-78
2022/02/08 15:43:26;;;;;;;10.95;3.35;;;;;;;;;;4941630;28;20031;-77
2022/02/08 15:46:08;;;;;;;8.15;3.42;;;;;;;;;;4945589;28;20051;-78
2022/02/08 15:48:35;;;;;;;8.82;2.90;;;;;;;;;;4944498;28;20144;-79
2022/02/08 15:51:13;;;;;;;6.03;2.78;;;;;;;;;;4948650;28;20104;-78
2022/02/08 15:54:01;;;;;;;6.32;3.25;;;;;;;;;;4948085;28;20019;-78
2022/02/08 16:07:13;;;;;;;7.53;3.33;;;;;;;;;;4943475;28;20114;-78
2022/02/08 16:09:56;;;;;;;6.10;3.22;;;;;;;;;;4950915;28;20027;-78
2022/02/08 16:12:47;;;;;;;5.55;3.20;;;;;;;;;;4947535;28;20090;-77
2022/02/08 16:18:38;;;;;;;7.53;3.88;;;;;;;;;;4945375;28;20043;-78
2022/02/08 16:21:23;;;;;;;8.23;3.78;;;;;;;;;;4945050;28;20031;-78
2022/02/08 16:29:03;;;;;;;7.15;3.22;;;;;;;;;;4952043;28;20114;-77
2022/02/08 16:56:22;;;;;;;6.68;4.22;;;;;;;;;;4918256;28;20118;-80
2022/02/08 16:58:52;;;;;;;10.57;6.43;;;;;;;;;;4952051;28;20062;-76
2022/02/08 17:01:23;;;;;;;8.57;5.85;;;;;;;;;;4942333;28;20418;-75
2022/02/08 17:03:51;;;;;;;13.38;7.88;;;;;;;;;;4944106;28;20032;-76
2022/02/08 17:06:18;;;;;;;9.07;5.95;;;;;;;;;;4946702;28;20041;-78
2022/02/08 17:08:45;;;;;;;9.23;7.10;;;;;;;;;;4942522;28;20119;-76
2022/02/08 17:11:18;;;;;;;10.63;5.28;;;;;;;;;;4954820;28;20055;-78
2022/02/08 17:46:16;;;;;;;8.75;4.38;;;;;;;;;;4944153;28;20046;-78
2022/02/08 17:48:42;;;;;;;6.57;3.80;;;8.00;99.90;;;;;;4940964;28;20038;-76
2022/02/08 17:51:08;;;;;;;7.20;4.22;;;;;;;;;;4950145;28;20035;-79
2022/02/08 17:53:35;;;;;;;8.77;3.58;;;;;;;;;;4951423;28;20031;-77
2022/02/08 17:56:01;;;;;;;6.00;3.60;;;;;;;;;;4950363;28;20035;-77
2022/02/08 17:58:27;;;;;;;6.63;3.95;;;;;;;;;;4962295;28;20103;-77
2022/02/08 18:00:54;;;;;;;7.13;3.47;;;;;;;;;;4946850;28;20109;-77
2022/02/08 18:03:20;;;;;;;7.82;4.28;;;;;;;;;;4949206;28;20023;-76
2022/02/08 18:05:46;;;;;;;8.30;3.67;;;;;;;;;;4948691;28;20023;-77
2022/02/08 18:08:13;;;;;;;6.65;3.35;;;;;;;;;;4946811;28;20047;-78
2022/02/08 18:10:47;;;;;;;8.48;4.13;;;;;;;;;;4945852;28;20027;-79
2022/02/08 18:13:16;;;;;;;8.90;4.35;;;;;;;;;;4936988;28;20027;-77
2022/02/08 18:15:42;;;;;;;8.27;4.70;;;;;;;;;;4945392;28;20403;-77
2022/02/08 18:18:20;;;;;;;5.50;3.63;;;;;;;;;;4948634;28;20038;-77
2022/02/08 18:20:52;;;;;;;11.05;4.78;;;;;;;;;;4950589;28;20054;-77
2022/02/08 18:28:52;;;;;;;5.65;3.95;;;;;;;;;;4946035;28;20117;-78
2022/02/08 18:56:15;;;;;;;7.43;4.40;;;;;;;;;;4953602;28;20111;-78
2022/02/08 19:07:09;;;;;;;6.95;5.00;;;;;;;;;;4945170;28;20031;-77
2022/02/08 19:09:52;;;;;;;10.18;6.03;;;8.30;99.90;;;;;;4945381;28;20178;-78
2022/02/08 19:20:01;;;;;;;10.10;5.55;;;;;;;;;;4948830;28;20036;-77
2022/02/08 19:22:27;;;;;;;8.85;4.88;;;;;;;;;;4942682;28;20122;-76
2022/02/08 19:24:56;;;;;;;9.20;4.93;;;;;;;;;;4944418;28;20051;-79
2022/02/08 19:27:22;;;;;;;8.30;4.85;;;;;;;;;;4947359;28;20437;-77
2022/02/08 19:29:49;;;;;;;9.18;4.90;;;;;;;;;;4948007;28;20042;-77
2022/02/08 19:32:15;;;;;;;8.52;5.10;;;;;;;;;;4949823;28;20119;-76
2022/02/08 19:34:42;;;;;;;10.05;5.18;;;;;;;;;;4960644;28;20027;-78
2022/02/08 19:37:10;;;;;;;10.50;5.78;;;;;;;;;;4964257;28;20268;-78
2022/02/08 19:39:39;;;;;;;7.82;4.78;;;;;;;;;;4967390;28;20015;-77
2022/02/08 19:42:06;;;;;;;7.78;5.10;;;;;;;;;;4961704;28;20024;-77
2022/02/08 19:44:32;;;;;;;9.27;5.95;;;;;;;;;;4960198;28;20026;-76
2022/02/08 19:46:59;;;;;;;9.07;4.65;;;;;;;;;;4950611;28;20031;-77
2022/02/08 19:49:25;;;;;;;8.35;4.82;;;;;;;;;;4947878;29;20038;-78
2022/02/08 19:51:52;;;;;;;6.90;4.68;;;;;;;;;;4945350;28;20529;-77
2022/02/08 19:54:23;;;;;;;7.88;5.03;;;;;;;;;;4962770;28;20067;-77
2022/02/08 19:57:19;;;;;;;8.15;5.38;;;;;;;;;;4951884;28;20129;-76
2022/02/08 19:59:45;;;;;;;9.00;5.07;;;;;;;;;;4951088;28;20109;-79
2022/02/08 20:02:14;;;;;;;8.23;5.03;;;;;;;;;;4948239;28;20399;-79
2022/02/08 20:04:45;;;;;;;9.77;5.53;;;;;;;;;;4955405;28;20448;-78
2022/02/08 20:07:11;;;;;;;7.72;5.22;;;;;;;;;;4950075;28;20041;-77
2022/02/08 20:09:40;;;;;;;9.15;6.13;;;;;;;;;;4949733;28;20035;-79
2022/02/08 20:12:06;;;;;;;9.25;5.20;;;;;;;;;;4950204;29;20089;-76
2022/02/08 20:14:32;;;;;;;9.75;6.07;;;;;;;;;;4965859;28;20052;-78
2022/02/08 20:16:59;;;;;;;7.78;5.07;;;;;;;;;;4948197;28;20027;-76
2022/02/08 20:19:27;;;;;;;7.88;4.82;;;;;;;;;;4966013;28;20470;-76
2022/02/08 20:22:01;;;;;;;8.38;4.68;;;;;;;;;;4968831;28;20483;-78
2022/02/08 20:24:27;;;;;;;6.78;4.07;;;;;;;;;;4949452;28;20028;-77
2022/02/08 20:29:33;;;;;;;9.02;5.50;;;;;;;;;;4950161;28;20050;-77
2022/02/08 20:31:59;;;;;;;10.50;6.20;;;;;;;;;;4946104;28;20491;-78
2022/02/08 20:34:27;;;;;;;8.63;5.15;;;;;;;;;;4951226;28;20097;-77
2022/02/08 20:36:55;;;;;;;8.52;4.30;;;;;;;;;;4949406;28;20380;-78
2022/02/08 20:39:22;;;;;;;10.23;5.30;;;;;;;;;;4953119;28;20027;-77
2022/02/08 20:41:48;;;;;;;8.13;4.57;;;;;;;;;;4952391;28;20024;-75
2022/02/08 20:44:17;;;;;;;7.95;4.93;;;;;;;;;;4949828;29;20479;-76
2022/02/08 20:46:50;;;;;;;7.05;4.25;;;;;;;;;;4945301;28;20019;-78
2022/02/08 20:49:16;;;;;;;8.80;4.03;;;;;;;;;;4949787;28;20507;-77
2022/02/08 20:51:44;;;;;;;8.10;4.60;;;;;;;;;;4949321;28;20082;-77
2022/02/08 20:54:13;;;;;;;8.88;4.70;;;;;;;;;;4948361;28;20098;-78
2022/02/08 20:56:39;;;;;;;6.78;4.45;;;;;;;;;;4970542;28;20082;-78
2022/02/08 20:59:09;;;;;;;7.93;4.85;;;;;;;;;;4965662;28;20036;-78
2022/02/08 21:01:35;;;;;;;6.05;4.10;;;;;;;;;;4970223;28;20035;-79
2022/02/08 21:04:10;;;;;;;7.78;4.30;;;;;;;;;;4946914;28;20560;-78
2022/02/08 21:06:41;;;;;;;6.75;4.07;;;;;;;;;;4970577;28;20467;-77
2022/02/08 21:09:07;;;;;;;7.88;4.38;;;;;;;;;;4952656;28;20032;-77
2022/02/08 21:11:35;;;;;;;8.65;4.70;;;;;;;;;;4951160;28;20028;-78
2022/02/08 21:14:06;;;;;;;5.95;3.90;;;;;;;;;;4954451;28;20399;-77
2022/02/08 21:16:40;;;;;;;8.95;4.05;;;8.20;99.90;;;;;;4966700;28;20050;-77
2022/02/08 21:19:06;;;;;;;5.72;3.47;;;;;;;;;;4950556;28;20020;-77
2022/02/08 21:21:32;;;;;;;6.32;3.78;;;;;;;;;;4943847;28;20031;-77
2022/02/08 21:23:58;;;;;;;9.20;4.32;;;;;;;;;;4955331;28;20023;-78
2022/02/08 21:26:30;;;;;;;6.97;3.70;;;;;;;;;;4971931;28;20063;-79
2022/02/08 21:31:44;;;;;;;8.15;4.28;;;;;;;;;;4951768;28;20115;-78
2022/02/08 21:47:55;;;;;;;6.03;3.90;;;;;;;;;;4952038;28;20027;-77
2022/02/08 21:53:06;;;;;;;8.43;4.40;;;7.80;99.90;;;;;;4948246;28;20038;-77
2022/02/08 21:55:33;;;;;;;13.43;6.72;;;8.10;99.90;;;;;;4936756;29;20050;-77
2022/02/08 21:58:03;;;;;;;8.82;4.90;;;;;;;;;;4958275;28;20096;-77
2022/02/08 22:00:31;;;;;;;9.25;3.85;;;8.20;99.90;;;;;;4967499;28;20615;-77
2022/02/08 22:02:57;;;;;;;10.13;5.43;;;;;;;;;;4963228;28;20035;-78
2022/02/08 22:05:23;;;;;;;8.32;4.30;;;8.00;99.90;;;;;;4965638;28;20030;-77
2022/02/08 22:21:29;;;;;;;9.88;4.65;;;8.10;99.90;;;;;;4942958;28;20484;-77
2022/02/08 22:24:04;;;;;;;7.43;4.28;;;;;;;;;;4951982;28;20035;-78
2022/02/08 22:29:29;;;;;;;7.70;4.05;;;;;;;;;;4950547;28;20046;-78
2022/02/08 22:32:07;;;;;;;6.10;4.25;;;;;;;;;;4957497;28;20098;-78
2022/02/08 22:35:15;;;;;;;8.52;4.68;;;;;;;;;;4954367;28;20090;-78
2022/02/08 22:37:30;;;;;;;8.30;4.05;;;;;;;;;;4952508;28;20042;-77
2022/02/08 22:40:02;;;;;;;;;;;8.00;99.90;;;;;;4965075;28;20023;-78
2022/02/08 22:42:37;;;;;;;9.35;4.25;;;8.00;99.90;;;;;;4954638;28;19945;-78
2022/02/08 22:45:04;;;;;;;8.40;4.40;;;;;;;;;;4953746;28;20070;-77